Saginaw, Texas
Current Conditions -  °F | °C
As of 10:53 AM on Sunday 23 Nov 2014 (Local Time) from KFTW Reporting Station
Clear Clear  
Wind Chill: 67°   Ceiling: Unl
Heat Index: 67°   Visibility: 10mi
Dew Point: 50°   Wind: 16mph
Humidity: 54%   Direction: 240°WSW
Pressure: 29.48"   Gusts: NA
Location:  32.9166°N, 97.4371°W
Report Text: KFTW 231653Z 24014KT 10SM CLR 19/10 A2948 RMK AO2 SLP979 T01940100
Loading
Personal Weather Stations






























Interactive Weather Map New forecast layout! Learn more

10-Day Weather Forecast

Advertisements
Track Severe Weather on mobile